Time;durP1;ratioP1;P1;durP2;ratioP2;P2;SDS_P1;SDS_P2;PMS_P1;PMS_P2;Temp;Humidity;BMP_temperature;BMP_pressure;BME280_temperature;BME280_humidity;BME280_pressure;Samples;Min_cycle;Max_cycle;Signal;HPM_P1;HPM_P2
2021/11/12 00:13:07;;;;;;;211.43;118.82;;;19.40;91.30;;;;;;5072679;28;20031;-61
2021/11/12 00:15:41;;;;;;;214.23;121.85;;;19.50;91.30;;;;;;5072432;28;20039;-61
2021/11/12 00:18:08;;;;;;;202.48;114.43;;;19.50;91.30;;;;;;5072367;28;20036;-60
2021/11/12 00:20:36;;;;;;;195.65;109.22;;;19.50;91.10;;;;;;5072202;28;20085;-60
2021/11/12 00:23:04;;;;;;;210.07;116.28;;;19.60;91.40;;;;;;5072501;28;20038;-59
2021/11/12 00:25:31;;;;;;;200.35;110.75;;;19.60;91.10;;;;;;5072676;28;20095;-59
2021/11/12 00:27:59;;;;;;;199.93;112.68;;;19.60;91.10;;;;;;5072493;28;20493;-59
2021/11/12 00:30:45;;;;;;;171.55;100.07;;;19.60;91.10;;;;;;5071797;28;20039;-59
2021/11/12 00:38:31;;;;;;;196.43;114.22;;;19.70;91.00;;;;;;5072086;28;20031;-60
2021/11/12 00:41:11;;;;;;;184.25;107.68;;;19.70;91.00;;;;;;5072597;28;20032;-61
2021/11/12 00:43:44;;;;;;;190.93;111.82;;;19.80;90.90;;;;;;5072659;28;20216;-60
2021/11/12 00:46:20;;;;;;;187.35;108.43;;;19.80;90.90;;;;;;5072489;28;20104;-60
2021/11/12 00:48:57;;;;;;;179.45;107.97;;;19.90;90.80;;;;;;5072099;28;20028;-60
2021/11/12 00:51:28;;;;;;;186.57;106.70;;;19.90;90.80;;;;;;5072786;28;20025;-60
2021/11/12 00:56:27;;;;;;;186.13;107.70;;;19.90;90.70;;;;;;5071528;28;20462;-60
2021/11/12 00:58:57;;;;;;;183.23;106.35;;;20.00;90.70;;;;;;5071423;28;20036;-61
2021/11/12 01:01:27;;;;;;;178.38;106.65;;;20.00;90.60;;;;;;5072532;28;20032;-62
2021/11/12 01:03:55;;;;;;;179.27;105.57;;;20.10;90.70;;;;;;5072096;28;20568;-61
2021/11/12 01:06:23;;;;;;;176.98;99.10;;;20.10;90.60;;;;;;5072075;28;20028;-61
2021/11/12 01:08:51;;;;;;;176.18;103.60;;;20.20;90.70;;;;;;5072145;28;20081;-62
2021/11/12 01:11:20;;;;;;;206.98;122.63;;;20.20;90.50;;;;;;5075995;28;20108;-62
2021/11/12 01:13:49;;;;;;;212.77;125.45;;;20.30;90.40;;;;;;5075839;28;20024;-59
2021/11/12 01:16:18;;;;;;;206.70;122.82;;;20.40;90.30;;;;;;5075805;28;20028;-59
2021/11/12 01:18:45;;;;;;;203.57;115.65;;;20.50;90.10;;;;;;5075946;28;20048;-56
2021/11/12 01:21:15;;;;;;;196.00;115.32;;;20.50;89.70;;;;;;5075900;28;20027;-60
2021/11/12 01:23:46;;;;;;;200.50;118.40;;;20.60;89.50;;;;;;5075621;28;20100;-60
2021/11/12 01:26:14;;;;;;;178.17;105.97;;;20.60;89.40;;;;;;5076192;28;20019;-60
2021/11/12 01:28:42;;;;;;;165.60;95.20;;;20.60;89.10;;;;;;5076425;28;20024;-62
2021/11/12 01:31:10;;;;;;;194.07;120.07;;;20.70;89.00;;;;;;5075157;28;20027;-61
2021/11/12 01:33:39;;;;;;;156.18;95.43;;;20.70;88.70;;;;;;5075108;28;20537;-61
2021/11/12 01:36:29;;;;;;;143.70;82.57;;;20.70;88.90;;;;;;5075405;28;20035;-60
2021/11/12 01:39:00;;;;;;;161.25;98.95;;;20.70;88.70;;;;;;5074148;28;20434;-59
2021/11/12 01:41:31;;;;;;;196.85;115.45;;;20.70;88.60;;;;;;5075407;28;20024;-60
2021/11/12 01:44:03;;;;;;;165.00;99.93;;;20.80;88.60;;;;;;5071977;28;20035;-60
2021/11/12 01:49:12;;;;;;;174.30;110.55;;;20.80;89.00;;;;;;5074865;28;19904;-59
2021/11/12 01:59:50;;;;;;;157.20;93.28;;;20.90;88.70;;;;;;5075436;28;20119;-61
2021/11/12 02:02:18;;;;;;;145.18;91.00;;;20.90;88.60;;;;;;5075026;28;20031;-60
2021/11/12 02:04:46;;;;;;;143.70;89.35;;;20.90;88.50;;;;;;5074678;28;20509;-59
2021/11/12 02:07:13;;;;;;;153.70;93.03;;;21.00;88.60;;;;;;5074383;28;20035;-61
2021/11/12 02:09:41;;;;;;;144.00;85.45;;;21.00;88.60;;;;;;5075087;28;20077;-57
2021/11/12 02:14:45;;;;;;;167.35;100.85;;;21.00;88.30;;;;;;5074856;28;20479;-62
2021/11/12 02:17:16;;;;;;;142.85;85.10;;;21.00;88.30;;;;;;5075030;28;20459;-61
2021/11/12 02:19:58;;;;;;;143.77;88.40;;;21.00;88.60;;;;;;5073602;28;20119;-61
2021/11/12 02:22:31;;;;;;;145.98;89.40;;;21.00;88.20;;;;;;5074039;28;20055;-59
2021/11/12 02:25:21;;;;;;;137.30;83.88;;;21.00;88.30;;;;;;5075207;28;20070;-60
2021/11/12 02:27:54;;;;;;;140.32;86.20;;;21.00;88.40;;;;;;5075054;28;20048;-61
2021/11/12 02:30:27;;;;;;;152.13;92.28;;;21.10;88.40;;;;;;5074579;28;20157;-61
2021/11/12 02:33:04;;;;;;;134.40;83.60;;;21.10;88.50;;;;;;5074367;28;20463;-61
2021/11/12 02:35:34;;;;;;;130.25;77.65;;;21.10;88.60;;;;;;5074150;28;20032;-58
2021/11/12 02:38:03;;;;;;;137.75;86.18;;;21.20;88.40;;;;;;5074262;28;20540;-60
2021/11/12 02:40:32;;;;;;;132.15;82.53;;;21.20;88.20;;;;;;5074197;28;20037;-61
2021/11/12 02:43:00;;;;;;;114.57;70.25;;;21.20;88.00;;;;;;5073942;28;20561;-60
2021/11/12 02:45:29;;;;;;;129.45;76.28;;;21.20;88.00;;;;;;5074253;28;20070;-61
2021/11/12 02:47:57;;;;;;;139.38;86.97;;;21.30;87.90;;;;;;5073889;28;20048;-62
2021/11/12 02:50:24;;;;;;;130.32;80.97;;;21.30;87.50;;;;;;5073945;28;20047;-60
2021/11/12 02:53:00;;;;;;;134.10;82.50;;;21.30;87.60;;;;;;5074101;28;20100;-60
2021/11/12 02:55:28;;;;;;;115.70;74.85;;;21.40;87.40;;;;;;5073905;28;20025;-60
2021/11/12 02:57:56;;;;;;;138.52;83.43;;;21.40;87.40;;;;;;5073673;28;20044;-60
2021/11/12 03:00:25;;;;;;;128.93;80.80;;;21.50;87.20;;;;;;5072250;28;20126;-61
2021/11/12 03:02:53;;;;;;;114.85;70.65;;;21.50;86.90;;;;;;5073722;28;20028;-61
2021/11/12 03:05:21;;;;;;;119.47;78.85;;;21.60;86.80;;;;;;5073690;28;20034;-61
2021/11/12 03:07:48;;;;;;;115.90;74.05;;;21.60;86.40;;;;;;5073926;28;20027;-60
2021/11/12 03:10:18;;;;;;;103.15;68.43;;;21.70;86.40;;;;;;5072681;28;20025;-62
2021/11/12 03:12:46;;;;;;;115.13;71.30;;;21.80;86.20;;;;;;5073683;28;20426;-59
2021/11/12 03:15:14;;;;;;;92.13;59.30;;;21.80;86.10;;;;;;5071988;28;20028;-60
2021/11/12 03:17:45;;;;;;;94.20;60.22;;;21.90;85.90;;;;;;5073431;28;20037;-59
2021/11/12 03:20:14;;;;;;;95.30;58.47;;;21.90;85.70;;;;;;5073184;28;20035;-59
2021/11/12 03:23:07;;;;;;;95.53;60.28;;;21.90;85.60;;;;;;5073289;28;20048;-59
2021/11/12 03:46:56;;;;;;;90.85;58.58;;;22.00;85.30;;;;;;5051118;28;20032;-57
2021/11/12 04:02:09;;;;;;;91.88;61.63;;;22.00;85.90;;;;;;5089333;28;20066;-59
2021/11/12 04:05:07;;;;;;;84.13;54.50;;;22.00;86.30;;;;;;5089400;28;20047;-58
2021/11/12 04:18:55;;;;;;;84.85;52.88;;;22.00;86.60;;;;;;5089910;28;20061;-59
2021/11/12 04:49:24;;;;;;;73.60;49.20;;;22.10;86.30;;;;;;5089101;28;20119;-60
2021/11/12 05:10:55;;;;;;;60.33;39.42;;;22.20;86.70;;;;;;5074533;28;20086;-59
2021/11/12 05:13:38;;;;;;;65.03;41.78;;;22.20;86.50;;;;;;5074198;28;20039;-61
2021/11/12 05:44:04;;;;;;;52.80;34.00;;;22.20;86.70;;;;;;5074556;28;20051;-59
2021/11/12 05:46:25;;;;;;;42.83;28.98;;;22.30;86.30;;;;;;5073926;28;20332;-60
2021/11/12 05:52:11;;;;;;;;;;;;;;;;;;;;;
2021/11/12 05:57:34;;;;;;;37.50;26.38;;;22.20;86.50;;;;;;5074910;28;20054;-57
2021/11/12 06:00:08;;;;;;;44.67;31.25;;;22.20;86.40;;;;;;5074204;28;20021;-55
2021/11/12 06:02:36;;;;;;;43.97;32.25;;;22.10;86.80;;;;;;5074073;28;20090;-59
2021/11/12 06:05:24;;;;;;;41.53;26.13;;;22.10;87.30;;;;;;5073135;28;20039;-57
2021/11/12 06:07:52;;;;;;;47.75;33.20;;;22.10;87.20;;;;;;5065867;28;20031;-59
2021/11/12 06:10:20;;;;;;;49.88;30.70;;;22.10;87.50;;;;;;5074344;28;20074;-59
2021/11/12 06:12:53;;;;;;;44.13;29.45;;;22.10;87.50;;;;;;5072414;28;20528;-56
2021/11/12 06:15:20;;;;;;;49.83;35.03;;;22.10;87.50;;;;;;5073062;28;20413;-60
2021/11/12 06:17:48;;;;;;;44.03;31.48;;;22.00;87.90;;;;;;5073692;28;20510;-58
2021/11/12 06:20:18;;;;;;;49.25;33.15;;;22.10;87.80;;;;;;5073542;28;20104;-59
2021/11/12 06:22:46;;;;;;;35.13;24.85;;;22.00;87.70;;;;;;5074205;28;20070;-61
2021/11/12 06:25:16;;;;;;;46.45;29.77;;;22.00;87.60;;;;;;5072009;28;20024;-56
2021/11/12 06:27:44;;;;;;;41.70;25.90;;;22.00;87.80;;;;;;5071014;28;20032;-60
2021/11/12 06:30:12;;;;;;;38.08;25.95;;;22.00;87.80;;;;;;5074137;28;20438;-58
2021/11/12 06:32:43;;;;;;;45.55;30.50;;;22.00;88.00;;;;;;5073166;28;20200;-60
2021/11/12 06:35:10;;;;;;;37.03;25.00;;;21.90;88.20;;;;;;5073767;28;20490;-59
2021/11/12 06:37:38;;;;;;;38.80;26.73;;;21.90;88.20;;;;;;5072096;28;20083;-58
2021/11/12 06:40:06;;;;;;;44.38;30.10;;;21.90;88.10;;;;;;5073488;28;20028;-55
2021/11/12 06:42:38;;;;;;;42.42;27.83;;;21.90;88.60;;;;;;5073033;28;20127;-56
2021/11/12 06:50:39;;;;;;;32.38;24.75;;;21.80;88.30;;;;;;5073583;28;20031;-61
2021/11/12 06:53:07;;;;;;;36.08;24.42;;;21.80;88.60;;;;;;5052566;28;20055;-59
2021/11/12 06:55:34;;;;;;;37.67;27.55;;;21.80;88.50;;;;;;5052920;28;20032;-60
2021/11/12 06:58:02;;;;;;;37.28;25.13;;;21.80;88.90;;;;;;5052688;28;20108;-60
2021/11/12 07:00:29;;;;;;;40.40;29.45;;;21.80;88.70;;;;;;5051706;28;20028;-61
2021/11/12 07:02:56;;;;;;;41.85;28.77;;;21.70;89.00;;;;;;5058858;28;20024;-61
2021/11/12 07:05:24;;;;;;;44.42;28.98;;;21.70;89.20;;;;;;5072609;28;20112;-61
2021/11/12 07:07:51;;;;;;;34.00;25.33;;;21.70;89.30;;;;;;5072723;28;20108;-60
2021/11/12 07:10:20;;;;;;;32.92;23.88;;;21.60;89.20;;;;;;5072446;28;20025;-60
2021/11/12 07:12:47;;;;;;;36.55;25.85;;;21.60;89.30;;;;;;5072508;28;20111;-62
2021/11/12 07:15:15;;;;;;;37.47;26.30;;;21.60;89.50;;;;;;5072457;28;20111;-59
2021/11/12 07:17:42;;;;;;;38.03;25.10;;;21.60;89.50;;;;;;5071822;28;20078;-62
2021/11/12 07:20:10;;;;;;;37.83;24.67;;;21.60;89.70;;;;;;5072327;28;20051;-61
2021/11/12 07:22:37;;;;;;;32.22;23.15;;;21.50;89.70;;;;;;5071800;28;20036;-61
2021/11/12 07:25:06;;;;;;;36.85;24.73;;;21.50;90.00;;;;;;5071975;28;20116;-60
2021/11/12 07:27:34;;;;;;;36.17;24.80;;;21.50;90.00;;;;;;5072051;28;20468;-60
2021/11/12 07:30:04;;;;;;;31.73;24.10;;;21.50;90.00;;;;;;5072010;28;20021;-61
2021/11/12 07:32:31;;;;;;;35.08;25.17;;;21.50;90.20;;;;;;5072234;28;20035;-61
2021/11/12 07:34:59;;;;;;;35.00;25.08;;;21.50;90.20;;;;;;5072179;28;20021;-59
2021/11/12 07:37:29;;;;;;;32.38;24.20;;;21.40;90.20;;;;;;5071871;28;20107;-60
2021/11/12 07:39:58;;;;;;;34.15;23.75;;;21.40;90.30;;;;;;5071980;28;20029;-60
2021/11/12 07:42:32;;;;;;;33.28;23.48;;;21.40;90.30;;;;;;5067950;28;20159;-59
2021/11/12 07:45:11;;;;;;;33.92;24.60;;;21.40;90.40;;;;;;5071809;28;20028;-60
2021/11/12 07:47:38;;;;;;;34.85;25.10;;;21.30;90.40;;;;;;5072107;28;20070;-60
2021/11/12 07:50:09;;;;;;;31.55;23.50;;;21.30;90.40;;;;;;5071657;28;20031;-59
2021/11/12 07:52:38;;;;;;;31.65;24.00;;;21.30;90.50;;;;;;5071586;28;20127;-59
2021/11/12 07:55:09;;;;;;;31.45;22.63;;;21.30;90.60;;;;;;5072354;28;20111;-60
2021/11/12 07:57:37;;;;;;;31.38;22.08;;;21.30;90.60;;;;;;5071784;28;20025;-60
2021/11/12 08:00:06;;;;;;;33.80;22.83;;;21.20;90.60;;;;;;5071890;28;20044;-61
2021/11/12 08:02:33;;;;;;;29.85;22.42;;;21.20;90.60;;;;;;5071486;28;20052;-60
2021/11/12 08:05:12;;;;;;;32.50;22.85;;;21.20;90.70;;;;;;5071875;28;20072;-60
2021/11/12 08:07:40;;;;;;;30.63;21.48;;;21.20;90.70;;;;;;5072120;28;20025;-60
2021/11/12 08:10:10;;;;;;;29.95;22.02;;;21.20;90.80;;;;;;5071950;28;20036;-61
2021/11/12 08:12:40;;;;;;;30.92;22.75;;;21.10;90.80;;;;;;5071535;28;20116;-60
2021/11/12 08:17:46;;;;;;;31.98;23.13;;;21.10;90.90;;;;;;5072297;28;20028;-59
2021/11/12 08:20:23;;;;;;;30.98;24.00;;;21.10;91.00;;;;;;5072097;28;20039;-60
2021/11/12 08:26:12;;;;;;;29.17;21.73;;;21.00;91.00;;;;;;5071146;28;20029;-59
2021/11/12 08:36:40;;;;;;;28.08;20.70;;;21.00;91.20;;;;;;5071627;28;20024;-60
2021/11/12 08:39:18;;;;;;;30.77;21.65;;;20.90;91.20;;;;;;5072934;28;20028;-61
2021/11/12 08:41:50;;;;;;;30.88;21.67;;;20.90;91.30;;;;;;5075206;28;20056;-62
2021/11/12 08:44:24;;;;;;;31.27;21.63;;;20.90;91.30;;;;;;5075554;28;20028;-60
2021/11/12 08:49:48;;;;;;;29.85;20.75;;;20.90;91.30;;;;;;5074824;28;20040;-63
2021/11/12 08:52:18;;;;;;;29.85;20.70;;;20.90;91.40;;;;;;5075295;28;20079;-61
2021/11/12 08:54:48;;;;;;;26.92;21.05;;;20.80;91.40;;;;;;5075468;28;20032;-61
2021/11/12 08:57:17;;;;;;;27.23;21.08;;;20.80;91.40;;;;;;5075656;28;20475;-62
2021/11/12 08:59:52;;;;;;;31.35;20.10;;;20.80;91.40;;;;;;5074110;28;20040;-61
2021/11/12 09:02:25;;;;;;;28.38;20.27;;;20.80;91.40;;;;;;5075056;28;20020;-61
2021/11/12 09:04:54;;;;;;;25.45;19.88;;;20.80;91.50;;;;;;5075150;28;20020;-63
2021/11/12 09:07:22;;;;;;;28.25;20.92;;;20.80;91.50;;;;;;5075475;28;20035;-63
2021/11/12 09:09:56;;;;;;;25.75;19.60;;;20.80;91.50;;;;;;5075307;28;20356;-64
2021/11/12 09:12:25;;;;;;;26.98;19.77;;;20.80;91.50;;;;;;5074895;28;20090;-59
2021/11/12 09:14:55;;;;;;;28.40;20.33;;;20.70;91.40;;;;;;5074802;28;20498;-61
2021/11/12 09:17:26;;;;;;;26.50;19.92;;;20.70;91.50;;;;;;5075237;28;20043;-65
2021/11/12 09:19:57;;;;;;;28.35;20.30;;;20.70;91.60;;;;;;5075417;28;20024;-62
2021/11/12 09:22:30;;;;;;;27.15;20.65;;;20.70;91.60;;;;;;5075407;28;20259;-61
2021/11/12 09:24:57;;;;;;;27.50;20.40;;;20.70;91.60;;;;;;5075700;28;20075;-61
2021/11/12 09:27:25;;;;;;;29.85;20.48;;;20.70;91.60;;;;;;5074417;28;20093;-60
2021/11/12 09:29:53;;;;;;;26.98;19.65;;;20.70;91.60;;;;;;5074521;28;20029;-61
2021/11/12 09:32:21;;;;;;;27.58;19.23;;;20.70;91.60;;;;;;5074269;28;20088;-61
2021/11/12 09:34:48;;;;;;;27.80;19.75;;;20.70;91.60;;;;;;5075262;28;20067;-63
2021/11/12 09:37:21;;;;;;;28.48;20.08;;;20.70;91.60;;;;;;5074503;28;20032;-63
2021/11/12 09:39:54;;;;;;;27.88;20.55;;;20.70;91.60;;;;;;5073307;28;20024;-62
2021/11/12 09:42:27;;;;;;;26.00;18.30;;;20.70;91.60;;;;;;5074500;28;20107;-59
2021/11/12 09:44:55;;;;;;;25.15;18.98;;;20.60;91.60;;;;;;5074343;28;20024;-61
2021/11/12 09:47:27;;;;;;;29.13;18.73;;;20.60;91.60;;;;;;5074152;28;20020;-63
2021/11/12 09:50:03;;;;;;;28.95;19.45;;;20.60;91.60;;;;;;5074913;28;20058;-64
2021/11/12 09:52:32;;;;;;;26.70;19.00;;;20.60;91.70;;;;;;5073740;28;20060;-62
2021/11/12 09:55:00;;;;;;;25.08;18.92;;;20.60;91.80;;;;;;5074676;28;20046;-60
2021/11/12 09:57:30;;;;;;;25.75;19.35;;;20.60;91.80;;;;;;5074139;28;20086;-60
2021/11/12 10:00:01;;;;;;;26.15;18.55;;;20.60;91.80;;;;;;5074312;28;20429;-61
2021/11/12 10:02:30;;;;;;;24.50;17.92;;;20.60;91.90;;;;;;5074065;28;20066;-64
2021/11/12 10:04:58;;;;;;;30.30;18.73;;;20.60;91.90;;;;;;5074408;28;20483;-66
2021/11/12 10:07:32;;;;;;;24.10;17.42;;;20.60;91.90;;;;;;5074104;28;20021;-60
2021/11/12 10:10:10;;;;;;;24.77;17.00;;;20.60;91.90;;;;;;5074050;28;20025;-64
2021/11/12 10:12:41;;;;;;;22.92;16.50;;;20.60;91.90;;;;;;5073723;28;20486;-65
2021/11/12 10:15:34;;;;;;;21.70;17.02;;;20.50;91.90;;;;;;5073820;28;20028;-61
2021/11/12 10:18:13;;;;;;;23.73;17.27;;;20.50;91.80;;;;;;5072256;28;20494;-61
2021/11/12 10:20:58;;;;;;;21.77;17.00;;;20.50;91.90;;;;;;5073502;28;20060;-61
2021/11/12 10:23:30;;;;;;;22.70;16.25;;;20.50;91.90;;;;;;5073500;28;20432;-57
2021/11/12 10:26:04;;;;;;;25.52;17.70;;;20.50;91.90;;;;;;5073491;28;20387;-60
2021/11/12 10:28:44;;;;;;;22.50;17.02;;;20.50;91.90;;;;;;5073199;28;20039;-62
2021/11/12 10:31:21;;;;;;;22.23;17.00;;;20.50;91.90;;;;;;5073377;28;20033;-60
2021/11/12 10:33:52;;;;;;;26.33;17.85;;;20.50;91.90;;;;;;5073503;28;20154;-61
2021/11/12 10:36:21;;;;;;;20.50;15.38;;;20.50;91.90;;;;;;5073803;28;20455;-65
2021/11/12 10:38:49;;;;;;;24.75;17.40;;;20.40;91.80;;;;;;5073440;28;20167;-60
2021/11/12 10:41:25;;;;;;;24.52;16.15;;;20.40;91.80;;;;;;5073238;28;20032;-60
2021/11/12 10:43:54;;;;;;;22.88;15.85;;;20.40;91.80;;;;;;5071019;28;20485;-60
2021/11/12 10:46:52;;;;;;;21.90;16.13;;;20.40;91.80;;;;;;5073250;28;20154;-60
2021/11/12 10:49:29;;;;;;;22.38;15.40;;;20.40;91.80;;;;;;5073318;28;20016;-60
2021/11/12 10:52:05;;;;;;;20.55;16.17;;;20.40;91.80;;;;;;5073022;28;20536;-61
2021/11/12 10:54:44;;;;;;;21.98;15.68;;;20.40;91.80;;;;;;5073197;28;20028;-62
2021/11/12 10:57:13;;;;;;;20.55;15.27;;;20.40;91.80;;;;;;5073264;28;20028;-61
2021/11/12 11:00:00;;;;;;;18.52;14.70;;;20.40;91.80;;;;;;5072863;28;20056;-58
2021/11/12 11:02:30;;;;;;;20.85;15.85;;;20.40;91.80;;;;;;5072391;28;20414;-59
2021/11/12 11:05:04;;;;;;;19.40;14.80;;;20.40;91.80;;;;;;5072946;28;20035;-62
2021/11/12 11:07:32;;;;;;;18.75;14.93;;;20.30;91.80;;;;;;5073182;28;20017;-62
2021/11/12 11:10:01;;;;;;;20.50;14.23;;;20.30;92.00;;;;;;5071603;28;20024;-63
2021/11/12 11:12:38;;;;;;;20.67;15.27;;;20.30;91.80;;;;;;5072468;28;20063;-62
2021/11/12 11:15:32;;;;;;;23.70;15.13;;;20.30;91.70;;;;;;5073104;28;20032;-60
2021/11/12 11:18:22;;;;;;;19.05;14.20;;;20.30;91.80;;;;;;5072783;28;20043;-63
2021/11/12 11:24:04;;;;;;;18.70;13.43;;;20.30;91.70;;;;;;5072651;28;20017;-59
2021/11/12 11:26:43;;;;;;;18.45;13.30;;;20.30;91.70;;;;;;5072064;28;20052;-61
2021/11/12 11:29:23;;;;;;;19.60;14.15;;;20.30;91.70;;;;;;5072605;28;20051;-60
2021/11/12 11:31:54;;;;;;;18.45;12.73;;;20.30;91.70;;;;;;5072270;28;20101;-60
2021/11/12 11:34:23;;;;;;;20.45;14.10;;;20.30;91.70;;;;;;5072401;28;20020;-60
2021/11/12 11:36:54;;;;;;;17.02;12.93;;;20.30;91.70;;;;;;5072378;28;20032;-62
2021/11/12 11:39:22;;;;;;;19.08;13.45;;;20.30;91.50;;;;;;5072441;28;20063;-62
2021/11/12 11:41:52;;;;;;;20.58;14.55;;;20.30;91.40;;;;;;5072127;28;20396;-61
2021/11/12 11:44:20;;;;;;;19.35;12.70;;;20.30;91.50;;;;;;5072567;28;20099;-60
2021/11/12 11:46:51;;;;;;;17.67;13.02;;;20.30;91.40;;;;;;5072448;28;20020;-61
2021/11/12 11:49:21;;;;;;;18.42;13.60;;;20.30;91.30;;;;;;5072723;28;20489;-61
2021/11/12 11:51:58;;;;;;;17.02;12.27;;;20.30;91.40;;;;;;5072199;28;20200;-60
2021/11/12 11:54:27;;;;;;;16.35;12.85;;;20.30;91.30;;;;;;5072089;28;20119;-61
2021/11/12 11:56:58;;;;;;;14.80;11.48;;;20.30;91.30;;;;;;5072155;28;20028;-60
2021/11/12 11:59:36;;;;;;;16.23;12.40;;;20.30;91.30;;;;;;5072981;28;20024;-62
2021/11/12 12:02:13;;;;;;;16.20;12.05;;;20.30;91.30;;;;;;5072649;28;20056;-59
2021/11/12 12:04:46;;;;;;;15.90;12.07;;;20.30;91.30;;;;;;5072165;28;20433;-61
2021/11/12 12:07:22;;;;;;;15.68;11.80;;;20.30;91.20;;;;;;5072406;28;20442;-60
2021/11/12 12:10:00;;;;;;;16.33;12.20;;;20.30;91.10;;;;;;5072284;28;20017;-61
2021/11/12 12:12:31;;;;;;;16.75;12.25;;;20.30;91.30;;;;;;5071806;28;20498;-61
2021/11/12 12:15:08;;;;;;;18.30;12.27;;;20.30;91.00;;;;;;5075274;28;20153;-60
2021/11/12 12:17:43;;;;;;;15.02;12.02;;;20.30;91.10;;;;;;5076313;28;20029;-61
2021/11/12 12:21:02;;;;;;;16.30;11.82;;;20.30;91.10;;;;;;5076146;28;20534;-62
2021/11/12 13:20:31;;;;;;;11.15;7.95;;;20.10;90.90;;;;;;5068418;28;20048;-59
2021/11/12 13:25:49;;;;;;;11.40;8.20;;;20.10;90.90;;;;;;5069575;28;20033;-59
2021/11/12 13:28:19;;;;;;;10.88;7.57;;;20.10;90.90;;;;;;5072159;28;20429;-58
2021/11/12 13:30:59;;;;;;;9.85;7.60;;;20.10;90.90;;;;;;5069426;28;20120;-60
2021/11/12 13:34:02;;;;;;;9.13;7.53;;;20.00;90.80;;;;;;5065902;28;20032;-59
2021/11/12 13:36:32;;;;;;;8.85;6.90;;;20.10;90.90;;;;;;5070049;28;20032;-58
2021/11/12 13:39:11;;;;;;;7.43;6.65;;;20.10;90.80;;;;;;5072480;28;20032;-60
2021/11/12 13:41:59;;;;;;;7.03;5.05;;;20.00;90.70;;;;;;5066107;28;20043;-60
2021/11/12 13:44:32;;;;;;;8.85;6.18;;;20.00;90.50;;;;;;5068292;28;20107;-60
2021/11/12 13:47:03;;;;;;;8.55;6.72;;;20.00;90.50;;;;;;5070421;28;20020;-60
2021/11/12 13:49:45;;;;;;;7.27;5.40;;;20.00;90.60;;;;;;5072279;28;20029;-58
2021/11/12 13:52:16;;;;;;;7.45;5.32;;;20.00;90.60;;;;;;5066018;28;20076;-58
2021/11/12 13:55:12;;;;;;;6.38;5.30;;;20.00;90.60;;;;;;5071407;28;20033;-59
2021/11/12 13:57:52;;;;;;;6.80;5.45;;;19.90;90.60;;;;;;5070622;28;20455;-59
2021/11/12 14:00:20;;;;;;;6.82;5.07;;;19.90;90.60;;;;;;5071993;28;20108;-58
2021/11/12 14:02:54;;;;;;;6.75;5.30;;;19.90;90.60;;;;;;5067716;28;20032;-58
2021/11/12 14:05:22;;;;;;;8.63;5.88;;;19.90;90.50;;;;;;5071111;28;20082;-59
2021/11/12 14:08:05;;;;;;;6.43;4.82;;;19.90;90.60;;;;;;5071902;28;20103;-58
2021/11/12 14:10:36;;;;;;;6.78;5.05;;;19.90;90.50;;;;;;5069226;28;20100;-60
2021/11/12 14:13:06;;;;;;;5.85;4.68;;;19.90;90.60;;;;;;5064519;28;20139;-59
2021/11/12 14:18:16;;;;;;;6.43;5.10;;;19.80;90.50;;;;;;5071607;28;20020;-58
2021/11/12 14:24:13;;;;;;;6.38;5.28;;;19.80;90.50;;;;;;5066442;28;20043;-58
2021/11/12 14:38:12;;;;;;;4.10;3.60;;;19.70;90.40;;;;;;5070473;28;20044;-58
2021/11/12 14:41:09;;;;;;;5.18;4.10;;;19.70;90.40;;;;;;5068848;28;20025;-60
2021/11/12 14:49:31;;;;;;;5.50;4.10;;;19.70;90.40;;;;;;5070886;28;20035;-61
2021/11/12 14:54:55;;;;;;;5.32;4.03;;;19.70;90.40;;;;;;5070605;28;20024;-57
2021/11/12 14:57:31;;;;;;;6.93;3.83;;;19.60;90.40;;;;;;5071328;28;20107;-60
2021/11/12 15:00:05;;;;;;;4.35;3.55;;;19.60;90.40;;;;;;5070457;28;20071;-58
2021/11/12 15:02:37;;;;;;;4.30;3.60;;;19.70;90.40;;;;;;5066546;28;20544;-58
2021/11/12 15:05:06;;;;;;;4.97;3.65;;;19.60;90.40;;;;;;5070680;28;20074;-60
2021/11/12 15:07:42;;;;;;;4.60;3.10;;;19.60;90.30;;;;;;5069749;28;20082;-59
2021/11/12 15:10:16;;;;;;;4.10;3.35;;;19.60;90.30;;;;;;5070830;28;20024;-58
2021/11/12 15:12:49;;;;;;;3.10;2.67;;;19.60;90.30;;;;;;5066357;28;20574;-59
2021/11/12 15:15:17;;;;;;;4.45;3.17;;;19.60;90.20;;;;;;5067060;28;20029;-59
2021/11/12 15:17:48;;;;;;;3.75;2.97;;;19.60;90.20;;;;;;5070295;28;20024;-59
2021/11/12 15:20:16;;;;;;;4.78;3.28;;;19.50;90.10;;;;;;5070449;28;20024;-59
2021/11/12 15:30:25;;;;;;;3.60;2.63;;;19.50;90.00;;;;;;5072865;28;20027;-61
2021/11/12 15:32:58;;;;;;;3.10;2.75;;;19.50;90.10;;;;;;5073028;28;20075;-60
2021/11/12 15:35:29;;;;;;;2.95;2.50;;;19.50;90.10;;;;;;5072942;28;20364;-60
2021/11/12 15:38:08;;;;;;;2.42;2.13;;;19.40;90.00;;;;;;5072749;28;20032;-59
2021/11/12 15:40:38;;;;;;;3.05;2.13;;;19.50;90.00;;;;;;5072643;28;20486;-60
2021/11/12 15:45:52;;;;;;;3.25;2.17;;;19.40;90.00;;;;;;5071423;28;20399;-59
2021/11/12 15:48:23;;;;;;;2.80;2.35;;;19.40;90.00;;;;;;5072690;28;20031;-59
2021/11/12 15:53:25;;;;;;;3.03;2.05;;;19.40;90.00;;;;;;5072583;28;20052;-60
2021/11/12 15:56:10;;;;;;;2.97;2.00;;;19.40;90.00;;;;;;5073132;28;20028;-61
2021/11/12 16:09:44;;;;;;;3.03;2.38;;;19.40;89.80;;;;;;5073214;28;20043;-62
2021/11/12 16:12:19;;;;;;;2.55;1.80;;;19.30;89.80;;;;;;5072549;28;20107;-59
2021/11/12 16:25:28;;;;;;;1.50;1.40;;;19.30;89.60;;;;;;5073015;28;20494;-59
2021/11/12 16:28:01;;;;;;;1.98;1.77;;;19.30;89.60;;;;;;5072502;28;20028;-59
2021/11/12 16:30:36;;;;;;;1.52;1.38;;;19.30;89.60;;;;;;5072227;28;20032;-59
2021/11/12 16:33:06;;;;;;;2.42;1.63;;;19.30;89.60;;;;;;5072360;28;20624;-60
2021/11/12 16:35:37;;;;;;;1.90;1.40;;;19.20;89.50;;;;;;5072463;28;20032;-60
2021/11/12 16:38:38;;;;;;;1.80;1.40;;;19.20;89.40;;;;;;5072598;28;20021;-59
2021/11/12 16:41:20;;;;;;;1.38;1.20;;;19.20;89.40;;;;;;5072049;28;20032;-59
2021/11/12 16:49:10;;;;;;;1.80;1.15;;;19.20;89.20;;;;;;5072698;28;20390;-59
2021/11/12 16:52:06;;;;;;;1.65;1.23;;;19.20;89.20;;;;;;5072116;28;20098;-58
2021/11/12 16:57:49;;;;;;;1.55;1.10;;;19.20;89.00;;;;;;5069926;28;20020;-60
2021/11/12 17:05:49;;;;;;;0.98;0.90;;;19.10;88.60;;;;;;5075498;28;19905;-59
2021/11/12 17:16:34;;;;;;;1.90;1.00;;;19.10;88.50;;;;;;5075606;28;20016;-58
2021/11/12 17:46:21;;;;;;;0.60;0.45;;;19.00;88.10;;;;;;5074179;28;20071;-60
2021/11/12 17:51:48;;;;;;;0.93;0.43;;;19.00;87.50;;;;;;5074724;28;20020;-60
2021/11/12 18:02:33;;;;;;;0.40;0.40;;;18.90;87.20;;;;;;5074812;28;20059;-60
2021/11/12 18:19:56;;;;;;;0.50;0.47;;;18.80;87.20;;;;;;5074305;28;20533;-59
2021/11/12 21:45:40;;;;;;;0.45;0.13;;;19.10;80.30;;;;;;5074656;28;20125;-61
2021/11/12 21:48:08;;;;;;;1.02;0.10;;;19.10;80.40;;;;;;5074343;28;20028;-59
2021/11/12 21:50:37;;;;;;;0.32;0.20;;;19.20;80.80;;;;;;5074157;28;20056;-60
2021/11/12 21:53:05;;;;;;;1.45;0.30;;;19.20;80.40;;;;;;5073813;28;20036;-60
2021/11/12 21:55:33;;;;;;;0.65;0.20;;;19.20;79.70;;;;;;5072735;28;20016;-61
2021/11/12 21:58:02;;;;;;;0.10;0.10;;;19.20;79.60;;;;;;5074235;28;20112;-60
2021/11/12 22:00:31;;;;;;;1.88;0.20;;;19.20;79.30;;;;;;5074081;28;20066;-61
2021/11/12 22:02:59;;;;;;;2.22;0.20;;;19.30;79.30;;;;;;5074305;28;20440;-58
2021/11/12 22:05:26;;;;;;;4.75;0.30;;;19.30;79.10;;;;;;5073727;28;20108;-60
2021/11/12 22:07:54;;;;;;;0.63;0.17;;;19.30;78.60;;;;;;5074216;28;20090;-59
2021/11/12 22:10:21;;;;;;;0.80;0.10;;;19.30;78.60;;;;;;5073815;28;20402;-60
2021/11/12 22:12:49;;;;;;;0.88;0.20;;;19.40;78.60;;;;;;5074224;28;20031;-60
2021/11/12 22:15:16;;;;;;;1.50;0.10;;;19.40;78.00;;;;;;5074270;28;20079;-61
2021/11/12 22:17:44;;;;;;;1.55;0.20;;;19.40;78.00;;;;;;5073659;28;20087;-59
2021/11/12 22:20:12;;;;;;;0.20;0.10;;;19.40;77.60;;;;;;5074119;28;20029;-61
2021/11/12 22:22:41;;;;;;;0.47;0.20;;;19.40;78.00;;;;;;5073745;28;20028;-59
2021/11/12 22:25:09;;;;;;;0.57;0.20;;;19.50;78.10;;;;;;5073607;28;20021;-61
2021/11/12 22:27:37;;;;;;;0.65;0.20;;;19.50;77.30;;;;;;5073837;28;20024;-62
2021/11/12 22:30:06;;;;;;;1.23;0.80;;;19.50;76.90;;;;;;5073539;28;20016;-59
2021/11/12 22:32:34;;;;;;;0.40;0.20;;;19.50;77.90;;;;;;5073266;28;20035;-60
2021/11/12 22:35:02;;;;;;;2.17;0.10;;;19.60;76.90;;;;;;5073571;28;20028;-61
2021/11/12 22:37:30;;;;;;;0.65;0.20;;;19.60;76.70;;;;;;5073574;28;20486;-61
2021/11/12 22:39:58;;;;;;;1.45;0.20;;;19.60;76.40;;;;;;5073079;28;20016;-59